KCSV/CSV METAR and TAF weather

Enter ICAO airport designator
Station Type Date Time Source
KCSV METAR 2019/06/17 11:53 UTC NOAA

KCSV 171153Z AUTO 00000KT 10SM CLR 20/18 A3008 RMK AO2 SLP164 70008 T02000183 10222 20194 53017


Station Type Date Time Source
KCSV Decoded METAR 2019/06/17 11:53 UTC NOAA

CROSSVILLE MEMORIAL AIRPORT , TN, United States (KCSV) 35-57N 85-05W 570M
Jun 17, 2019 - 07:53 AM EDT / 2019.06.17 1153 UTC
Wind: Calm:0
Visibility: 10 mile(s):0
Sky conditions: clear
Temperature: 68.0 F (20.0 C)
Dew Point: 64.9 F (18.3 C)
Relative Humidity: 89%
Pressure (altimeter): 30.08 in. Hg (1018 hPa)
Pressure tendency: 0.05 inches (1.7 hPa) higher than three hours ago
ob: KCSV 171153Z AUTO 00000KT 10SM CLR 20/18 A3008 RMK AO2 SLP164 70008 T02000183 10222 20194 53017
cycle: 12

Station Type Date Time Source
KCSV TAF 2019/06/17 12:22 UTC NOAA

TAF KCSV 171120Z 1712/1812 19004KT P6SM BKN250
FM171600 23008KT P6SM SCT040 BKN100
FM171900 22006KT P6SM VCTS BKN040CB
FM172100 21006KT 6SM SHRA VCTS BKN040CB
FM180200 17002KT P6SM SCT050 OVC100

Example: see airport list